sensor_id;sensor_type;location;lat;lon;timestamp;temperature;humidity
31837;DHT22;18401;49.344;6.240;2022-07-17T00:02:15;13.50;99.90
31837;DHT22;18401;49.344;6.240;2022-07-17T00:04:41;13.30;99.90
31837;DHT22;18401;49.344;6.240;2022-07-17T00:07:06;13.00;99.90
31837;DHT22;18401;49.344;6.240;2022-07-17T00:09:32;12.90;99.90
31837;DHT22;18401;49.344;6.240;2022-07-17T00:11:58;12.80;99.90
31837;DHT22;18401;49.344;6.240;2022-07-17T00:14:23;12.90;99.90
31837;DHT22;18401;49.344;6.240;2022-07-17T00:16:49;13.00;99.90
31837;DHT22;18401;49.344;6.240;2022-07-17T00:19:15;13.10;99.90
31837;DHT22;18401;49.344;6.240;2022-07-17T00:21:41;13.20;99.90
31837;DHT22;18401;49.344;6.240;2022-07-17T00:24:07;13.10;99.90
31837;DHT22;18401;49.344;6.240;2022-07-17T00:26:34;13.20;99.90
31837;DHT22;18401;49.344;6.240;2022-07-17T00:28:59;13.10;99.90
31837;DHT22;18401;49.344;6.240;2022-07-17T00:31:25;13.10;99.90
31837;DHT22;18401;49.344;6.240;2022-07-17T00:33:51;13.10;99.90
31837;DHT22;18401;49.344;6.240;2022-07-17T00:36:16;13.10;99.90
31837;DHT22;18401;49.344;6.240;2022-07-17T00:38:42;13.10;99.90
31837;DHT22;18401;49.344;6.240;2022-07-17T00:41:08;13.00;99.90
31837;DHT22;18401;49.344;6.240;2022-07-17T00:43:33;12.90;99.90
31837;DHT22;18401;49.344;6.240;2022-07-17T00:46:01;13.00;99.90
31837;DHT22;18401;49.344;6.240;2022-07-17T00:48:27;13.00;99.90
31837;DHT22;18401;49.344;6.240;2022-07-17T00:50:53;13.00;99.90
31837;DHT22;18401;49.344;6.240;2022-07-17T00:53:20;12.90;99.90
31837;DHT22;18401;49.344;6.240;2022-07-17T00:55:47;12.70;99.90
31837;DHT22;18401;49.344;6.240;2022-07-17T00:58:22;12.50;99.90
31837;DHT22;18401;49.344;6.240;2022-07-17T01:00:53;12.50;99.90
31837;DHT22;18401;49.344;6.240;2022-07-17T01:03:20;12.40;99.90
31837;DHT22;18401;49.344;6.240;2022-07-17T01:05:46;12.30;99.90
31837;DHT22;18401;49.344;6.240;2022-07-17T01:08:13;12.30;99.90
31837;DHT22;18401;49.344;6.240;2022-07-17T01:10:39;12.20;99.90
31837;DHT22;18401;49.344;6.240;2022-07-17T01:13:05;12.10;99.90
31837;DHT22;18401;49.344;6.240;2022-07-17T01:15:36;12.00;99.90
31837;DHT22;18401;49.344;6.240;2022-07-17T01:18:07;11.90;99.90
31837;DHT22;18401;49.344;6.240;2022-07-17T01:20:34;11.80;99.90
31837;DHT22;18401;49.344;6.240;2022-07-17T01:23:00;11.60;99.90
31837;DHT22;18401;49.344;6.240;2022-07-17T01:25:26;11.60;99.90
31837;DHT22;18401;49.344;6.240;2022-07-17T01:27:51;11.50;99.90
31837;DHT22;18401;49.344;6.240;2022-07-17T01:30:18;11.40;99.90
31837;DHT22;18401;49.344;6.240;2022-07-17T01:32:44;11.50;99.90
31837;DHT22;18401;49.344;6.240;2022-07-17T01:35:12;11.60;99.90
31837;DHT22;18401;49.344;6.240;2022-07-17T01:37:38;11.60;99.90
31837;DHT22;18401;49.344;6.240;2022-07-17T01:40:05;11.70;99.90
31837;DHT22;18401;49.344;6.240;2022-07-17T01:42:31;11.70;99.90
31837;DHT22;18401;49.344;6.240;2022-07-17T01:44:57;11.80;99.90
31837;DHT22;18401;49.344;6.240;2022-07-17T01:47:23;13.00;99.90
31837;DHT22;18401;49.344;6.240;2022-07-17T01:49:52;11.90;99.90
31837;DHT22;18401;49.344;6.240;2022-07-17T01:52:18;11.80;99.90
31837;DHT22;18401;49.344;6.240;2022-07-17T01:54:44;11.80;99.90
31837;DHT22;18401;49.344;6.240;2022-07-17T01:57:11;11.70;99.90
31837;DHT22;18401;49.344;6.240;2022-07-17T01:59:37;11.70;99.90
31837;DHT22;18401;49.344;6.240;2022-07-17T02:02:04;11.60;99.90
31837;DHT22;18401;49.344;6.240;2022-07-17T02:04:33;11.50;99.90
31837;DHT22;18401;49.344;6.240;2022-07-17T02:07:00;12.10;99.90
31837;DHT22;18401;49.344;6.240;2022-07-17T02:09:25;11.30;99.90
31837;DHT22;18401;49.344;6.240;2022-07-17T02:11:51;11.10;99.90
31837;DHT22;18401;49.344;6.240;2022-07-17T02:14:17;11.10;99.90
31837;DHT22;18401;49.344;6.240;2022-07-17T02:16:43;11.00;99.90
31837;DHT22;18401;49.344;6.240;2022-07-17T02:19:08;11.00;99.90
31837;DHT22;18401;49.344;6.240;2022-07-17T02:21:34;11.00;99.90
31837;DHT22;18401;49.344;6.240;2022-07-17T02:24:00;11.00;99.90
31837;DHT22;18401;49.344;6.240;2022-07-17T02:26:25;11.10;99.90
31837;DHT22;18401;49.344;6.240;2022-07-17T02:28:51;11.10;99.90
31837;DHT22;18401;49.344;6.240;2022-07-17T02:31:17;11.20;99.90
31837;DHT22;18401;49.344;6.240;2022-07-17T02:33:43;11.10;99.90
31837;DHT22;18401;49.344;6.240;2022-07-17T02:36:08;11.10;99.90
31837;DHT22;18401;49.344;6.240;2022-07-17T02:38:34;11.10;99.90
31837;DHT22;18401;49.344;6.240;2022-07-17T02:41:00;11.10;99.90
31837;DHT22;18401;49.344;6.240;2022-07-17T02:43:26;11.10;99.90
31837;DHT22;18401;49.344;6.240;2022-07-17T02:45:51;11.10;99.90
31837;DHT22;18401;49.344;6.240;2022-07-17T02:48:17;11.10;99.90
31837;DHT22;18401;49.344;6.240;2022-07-17T02:50:42;11.00;99.90
31837;DHT22;18401;49.344;6.240;2022-07-17T02:53:08;10.90;99.90
31837;DHT22;18401;49.344;6.240;2022-07-17T02:55:34;10.70;99.90
31837;DHT22;18401;49.344;6.240;2022-07-17T02:57:59;10.70;99.90
31837;DHT22;18401;49.344;6.240;2022-07-17T03:00:25;10.60;99.90
31837;DHT22;18401;49.344;6.240;2022-07-17T03:02:52;10.60;99.90
31837;DHT22;18401;49.344;6.240;2022-07-17T03:05:18;10.60;99.90
31837;DHT22;18401;49.344;6.240;2022-07-17T03:07:45;10.60;99.90
31837;DHT22;18401;49.344;6.240;2022-07-17T03:10:11;10.60;99.90
31837;DHT22;18401;49.344;6.240;2022-07-17T03:12:37;10.60;99.90
31837;DHT22;18401;49.344;6.240;2022-07-17T03:15:04;10.50;99.90
31837;DHT22;18401;49.344;6.240;2022-07-17T03:17:30;10.50;99.90
31837;DHT22;18401;49.344;6.240;2022-07-17T03:19:56;10.60;99.90
31837;DHT22;18401;49.344;6.240;2022-07-17T03:22:21;10.60;99.90
31837;DHT22;18401;49.344;6.240;2022-07-17T03:24:47;10.70;99.90
31837;DHT22;18401;49.344;6.240;2022-07-17T03:27:13;10.70;99.90
31837;DHT22;18401;49.344;6.240;2022-07-17T03:29:38;10.70;99.90
31837;DHT22;18401;49.344;6.240;2022-07-17T03:32:05;10.60;99.90
31837;DHT22;18401;49.344;6.240;2022-07-17T03:34:31;10.50;99.90
31837;DHT22;18401;49.344;6.240;2022-07-17T03:36:57;10.40;99.90
31837;DHT22;18401;49.344;6.240;2022-07-17T03:39:23;10.30;99.90
31837;DHT22;18401;49.344;6.240;2022-07-17T03:41:48;10.30;99.90
31837;DHT22;18401;49.344;6.240;2022-07-17T03:44:14;10.50;99.90
31837;DHT22;18401;49.344;6.240;2022-07-17T03:46:40;10.50;99.90
31837;DHT22;18401;49.344;6.240;2022-07-17T03:49:05;10.50;99.90
31837;DHT22;18401;49.344;6.240;2022-07-17T03:51:31;10.50;99.90
31837;DHT22;18401;49.344;6.240;2022-07-17T03:53:57;10.50;99.90
31837;DHT22;18401;49.344;6.240;2022-07-17T03:56:23;10.40;99.90
31837;DHT22;18401;49.344;6.240;2022-07-17T03:58:48;10.20;99.90
31837;DHT22;18401;49.344;6.240;2022-07-17T04:01:14;10.20;99.90
31837;DHT22;18401;49.344;6.240;2022-07-17T04:03:40;10.10;99.90
31837;DHT22;18401;49.344;6.240;2022-07-17T04:06:06;10.40;99.90
31837;DHT22;18401;49.344;6.240;2022-07-17T04:08:31;10.40;99.90
31837;DHT22;18401;49.344;6.240;2022-07-17T04:10:58;10.40;99.90
31837;DHT22;18401;49.344;6.240;2022-07-17T04:13:23;10.30;99.90
31837;DHT22;18401;49.344;6.240;2022-07-17T04:15:49;10.20;99.90
31837;DHT22;18401;49.344;6.240;2022-07-17T04:18:19;10.10;99.90
31837;DHT22;18401;49.344;6.240;2022-07-17T04:20:46;10.10;99.90
31837;DHT22;18401;49.344;6.240;2022-07-17T04:23:12;10.20;99.90
31837;DHT22;18401;49.344;6.240;2022-07-17T04:25:39;10.40;99.90
31837;DHT22;18401;49.344;6.240;2022-07-17T04:28:05;10.80;99.90
31837;DHT22;18401;49.344;6.240;2022-07-17T04:30:30;10.70;99.90
31837;DHT22;18401;49.344;6.240;2022-07-17T04:32:56;10.80;99.90
31837;DHT22;18401;49.344;6.240;2022-07-17T04:35:22;11.00;99.90
31837;DHT22;18401;49.344;6.240;2022-07-17T04:37:48;11.20;99.90
31837;DHT22;18401;49.344;6.240;2022-07-17T04:40:13;11.30;99.90
31837;DHT22;18401;49.344;6.240;2022-07-17T04:42:39;11.60;99.90
31837;DHT22;18401;49.344;6.240;2022-07-17T04:45:06;11.60;99.90
31837;DHT22;18401;49.344;6.240;2022-07-17T04:47:31;11.90;99.90
31837;DHT22;18401;49.344;6.240;2022-07-17T04:49:57;11.90;99.90
31837;DHT22;18401;49.344;6.240;2022-07-17T04:52:23;12.00;99.90
31837;DHT22;18401;49.344;6.240;2022-07-17T04:54:49;12.20;99.90
31837;DHT22;18401;49.344;6.240;2022-07-17T04:57:14;12.30;99.90
31837;DHT22;18401;49.344;6.240;2022-07-17T04:59:40;12.40;99.90
31837;DHT22;18401;49.344;6.240;2022-07-17T05:02:05;12.50;99.90
31837;DHT22;18401;49.344;6.240;2022-07-17T05:04:31;12.20;99.90
31837;DHT22;18401;49.344;6.240;2022-07-17T05:06:57;12.70;99.90
31837;DHT22;18401;49.344;6.240;2022-07-17T05:09:22;12.80;99.90
31837;DHT22;18401;49.344;6.240;2022-07-17T05:11:48;12.90;99.90
31837;DHT22;18401;49.344;6.240;2022-07-17T05:14:14;13.00;99.90
31837;DHT22;18401;49.344;6.240;2022-07-17T05:16:39;13.20;99.90
31837;DHT22;18401;49.344;6.240;2022-07-17T05:19:05;13.40;99.90
31837;DHT22;18401;49.344;6.240;2022-07-17T05:21:31;13.40;99.90
31837;DHT22;18401;49.344;6.240;2022-07-17T05:23:57;13.50;99.90
31837;DHT22;18401;49.344;6.240;2022-07-17T05:26:23;13.60;99.90
31837;DHT22;18401;49.344;6.240;2022-07-17T05:28:50;13.90;99.90
31837;DHT22;18401;49.344;6.240;2022-07-17T05:31:16;14.10;99.90
31837;DHT22;18401;49.344;6.240;2022-07-17T05:33:42;14.20;99.90
31837;DHT22;18401;49.344;6.240;2022-07-17T05:36:08;14.50;99.90
31837;DHT22;18401;49.344;6.240;2022-07-17T05:38:33;14.60;99.90
31837;DHT22;18401;49.344;6.240;2022-07-17T05:40:59;14.80;99.90
31837;DHT22;18401;49.344;6.240;2022-07-17T05:43:25;14.90;99.90
31837;DHT22;18401;49.344;6.240;2022-07-17T05:45:54;15.10;99.90
31837;DHT22;18401;49.344;6.240;2022-07-17T05:48:20;15.20;99.90
31837;DHT22;18401;49.344;6.240;2022-07-17T05:50:46;15.30;99.90
31837;DHT22;18401;49.344;6.240;2022-07-17T05:53:12;15.40;99.90
31837;DHT22;18401;49.344;6.240;2022-07-17T05:55:37;15.50;99.90
31837;DHT22;18401;49.344;6.240;2022-07-17T05:58:03;15.60;99.90
31837;DHT22;18401;49.344;6.240;2022-07-17T06:00:29;15.70;99.90
31837;DHT22;18401;49.344;6.240;2022-07-17T06:02:55;15.90;99.90
31837;DHT22;18401;49.344;6.240;2022-07-17T06:05:21;16.00;99.90
31837;DHT22;18401;49.344;6.240;2022-07-17T06:07:47;16.20;99.90
31837;DHT22;18401;49.344;6.240;2022-07-17T06:10:13;16.30;99.90
31837;DHT22;18401;49.344;6.240;2022-07-17T06:12:38;16.30;99.90
31837;DHT22;18401;49.344;6.240;2022-07-17T06:15:04;16.50;99.90
31837;DHT22;18401;49.344;6.240;2022-07-17T06:17:30;16.60;99.90
31837;DHT22;18401;49.344;6.240;2022-07-17T06:19:56;16.80;99.90
31837;DHT22;18401;49.344;6.240;2022-07-17T06:22:21;16.80;99.90
31837;DHT22;18401;49.344;6.240;2022-07-17T06:24:47;16.90;99.90
31837;DHT22;18401;49.344;6.240;2022-07-17T06:27:13;17.00;99.90
31837;DHT22;18401;49.344;6.240;2022-07-17T06:29:39;17.90;99.90
31837;DHT22;18401;49.344;6.240;2022-07-17T06:32:05;17.10;99.90
31837;DHT22;18401;49.344;6.240;2022-07-17T06:34:31;17.20;99.90
31837;DHT22;18401;49.344;6.240;2022-07-17T06:36:57;17.30;99.90
31837;DHT22;18401;49.344;6.240;2022-07-17T06:39:23;17.60;99.90
31837;DHT22;18401;49.344;6.240;2022-07-17T06:41:48;17.70;99.90
31837;DHT22;18401;49.344;6.240;2022-07-17T06:44:14;17.90;99.90
31837;DHT22;18401;49.344;6.240;2022-07-17T06:46:40;18.70;99.70
31837;DHT22;18401;49.344;6.240;2022-07-17T06:49:06;18.10;98.60
31837;DHT22;18401;49.344;6.240;2022-07-17T06:51:32;18.20;98.30
31837;DHT22;18401;49.344;6.240;2022-07-17T06:53:57;18.30;98.50
31837;DHT22;18401;49.344;6.240;2022-07-17T06:56:23;18.50;97.00
31837;DHT22;18401;49.344;6.240;2022-07-17T06:58:49;18.50;97.20
31837;DHT22;18401;49.344;6.240;2022-07-17T07:01:14;18.70;97.20
31837;DHT22;18401;49.344;6.240;2022-07-17T07:03:40;18.80;96.30
31837;DHT22;18401;49.344;6.240;2022-07-17T07:06:06;18.70;95.60
31837;DHT22;18401;49.344;6.240;2022-07-17T07:08:33;18.90;95.90
31837;DHT22;18401;49.344;6.240;2022-07-17T07:11:00;19.00;95.30
31837;DHT22;18401;49.344;6.240;2022-07-17T07:13:26;19.20;95.30
31837;DHT22;18401;49.344;6.240;2022-07-17T07:15:52;19.40;94.20
31837;DHT22;18401;49.344;6.240;2022-07-17T07:18:17;19.50;93.70
31837;DHT22;18401;49.344;6.240;2022-07-17T07:20:43;19.60;94.00
31837;DHT22;18401;49.344;6.240;2022-07-17T07:23:09;19.80;93.40
31837;DHT22;18401;49.344;6.240;2022-07-17T07:25:35;20.00;92.10
31837;DHT22;18401;49.344;6.240;2022-07-17T07:28:02;20.90;94.10
31837;DHT22;18401;49.344;6.240;2022-07-17T07:30:27;20.20;91.60
31837;DHT22;18401;49.344;6.240;2022-07-17T07:32:53;20.20;90.70
31837;DHT22;18401;49.344;6.240;2022-07-17T07:35:18;20.30;90.80
31837;DHT22;18401;49.344;6.240;2022-07-17T07:37:44;20.60;90.80
31837;DHT22;18401;49.344;6.240;2022-07-17T07:40:10;20.80;90.40
31837;DHT22;18401;49.344;6.240;2022-07-17T07:42:36;20.90;87.20
31837;DHT22;18401;49.344;6.240;2022-07-17T07:45:02;20.80;90.20
31837;DHT22;18401;49.344;6.240;2022-07-17T07:47:28;21.00;87.90
31837;DHT22;18401;49.344;6.240;2022-07-17T07:49:54;21.20;86.60
31837;DHT22;18401;49.344;6.240;2022-07-17T07:52:19;21.40;86.70
31837;DHT22;18401;49.344;6.240;2022-07-17T07:54:45;21.60;84.70
31837;DHT22;18401;49.344;6.240;2022-07-17T07:57:11;21.70;83.70
31837;DHT22;18401;49.344;6.240;2022-07-17T07:59:36;21.90;83.30
31837;DHT22;18401;49.344;6.240;2022-07-17T08:02:03;22.00;82.90
31837;DHT22;18401;49.344;6.240;2022-07-17T08:04:29;22.20;82.80
31837;DHT22;18401;49.344;6.240;2022-07-17T08:06:55;22.40;81.40
31837;DHT22;18401;49.344;6.240;2022-07-17T08:09:21;22.60;80.50
31837;DHT22;18401;49.344;6.240;2022-07-17T08:11:46;22.70;77.70
31837;DHT22;18401;49.344;6.240;2022-07-17T08:14:12;22.70;77.70
31837;DHT22;18401;49.344;6.240;2022-07-17T08:16:38;22.70;78.10
31837;DHT22;18401;49.344;6.240;2022-07-17T08:19:03;23.00;79.00
31837;DHT22;18401;49.344;6.240;2022-07-17T08:21:29;23.10;74.50
31837;DHT22;18401;49.344;6.240;2022-07-17T08:23:55;23.20;74.40
31837;DHT22;18401;49.344;6.240;2022-07-17T08:26:20;23.30;73.70
31837;DHT22;18401;49.344;6.240;2022-07-17T08:28:46;23.40;73.00
31837;DHT22;18401;49.344;6.240;2022-07-17T08:31:12;23.30;71.80
31837;DHT22;18401;49.344;6.240;2022-07-17T08:33:38;23.40;72.50
31837;DHT22;18401;49.344;6.240;2022-07-17T08:36:04;23.60;71.20
31837;DHT22;18401;49.344;6.240;2022-07-17T08:38:30;24.70;71.40
31837;DHT22;18401;49.344;6.240;2022-07-17T08:40:56;24.00;68.10
31837;DHT22;18401;49.344;6.240;2022-07-17T08:43:24;24.10;70.60
31837;DHT22;18401;49.344;6.240;2022-07-17T08:45:51;24.40;67.70
31837;DHT22;18401;49.344;6.240;2022-07-17T08:48:18;24.40;65.00
31837;DHT22;18401;49.344;6.240;2022-07-17T08:50:45;24.60;66.00
31837;DHT22;18401;49.344;6.240;2022-07-17T08:53:11;24.70;63.20
31837;DHT22;18401;49.344;6.240;2022-07-17T08:55:37;24.80;63.40
31837;DHT22;18401;49.344;6.240;2022-07-17T08:58:03;24.90;62.80
31837;DHT22;18401;49.344;6.240;2022-07-17T09:00:30;25.10;62.70
31837;DHT22;18401;49.344;6.240;2022-07-17T09:03:06;25.30;62.30
31837;DHT22;18401;49.344;6.240;2022-07-17T09:05:37;25.60;60.60
31837;DHT22;18401;49.344;6.240;2022-07-17T09:08:12;25.90;59.10
31837;DHT22;18401;49.344;6.240;2022-07-17T09:10:43;26.00;59.10
31837;DHT22;18401;49.344;6.240;2022-07-17T09:15:42;25.90;57.20
31837;DHT22;18401;49.344;6.240;2022-07-17T09:18:08;25.70;59.20
31837;DHT22;18401;49.344;6.240;2022-07-17T09:20:33;26.00;56.10
31837;DHT22;18401;49.344;6.240;2022-07-17T09:23:03;26.30;53.90
31837;DHT22;18401;49.344;6.240;2022-07-17T09:25:41;26.30;54.50
31837;DHT22;18401;49.344;6.240;2022-07-17T09:28:08;26.50;54.90
31837;DHT22;18401;49.344;6.240;2022-07-17T09:30:39;26.50;53.80
31837;DHT22;18401;49.344;6.240;2022-07-17T09:33:07;26.30;53.70
31837;DHT22;18401;49.344;6.240;2022-07-17T09:35:34;26.70;55.20
31837;DHT22;18401;49.344;6.240;2022-07-17T09:38:00;27.00;54.70
31837;DHT22;18401;49.344;6.240;2022-07-17T09:40:25;27.30;53.20
31837;DHT22;18401;49.344;6.240;2022-07-17T09:43:09;27.30;52.30
31837;DHT22;18401;49.344;6.240;2022-07-17T09:45:35;27.10;49.90
31837;DHT22;18401;49.344;6.240;2022-07-17T09:48:03;25.90;50.80
31837;DHT22;18401;49.344;6.240;2022-07-17T09:50:29;27.40;50.20
31837;DHT22;18401;49.344;6.240;2022-07-17T09:52:57;27.60;50.30
31837;DHT22;18401;49.344;6.240;2022-07-17T09:55:28;25.70;50.80
31837;DHT22;18401;49.344;6.240;2022-07-17T09:57:55;28.10;50.10
31837;DHT22;18401;49.344;6.240;2022-07-17T10:00:22;28.00;49.20
31837;DHT22;18401;49.344;6.240;2022-07-17T10:02:48;28.00;49.40
31837;DHT22;18401;49.344;6.240;2022-07-17T10:05:16;28.20;48.60
31837;DHT22;18401;49.344;6.240;2022-07-17T10:07:46;28.40;49.50
31837;DHT22;18401;49.344;6.240;2022-07-17T10:10:13;28.90;47.50
31837;DHT22;18401;49.344;6.240;2022-07-17T10:12:45;28.90;47.50
31837;DHT22;18401;49.344;6.240;2022-07-17T10:15:12;29.10;47.50
31837;DHT22;18401;49.344;6.240;2022-07-17T10:17:38;29.60;47.00
31837;DHT22;18401;49.344;6.240;2022-07-17T10:20:04;30.10;45.60
31837;DHT22;18401;49.344;6.240;2022-07-17T10:22:46;29.90;44.20
31837;DHT22;18401;49.344;6.240;2022-07-17T10:25:17;29.90;44.60
31837;DHT22;18401;49.344;6.240;2022-07-17T10:27:52;30.10;45.00
31837;DHT22;18401;49.344;6.240;2022-07-17T10:30:27;30.60;42.90
31837;DHT22;18401;49.344;6.240;2022-07-17T10:32:54;30.90;44.10
31837;DHT22;18401;49.344;6.240;2022-07-17T10:35:20;31.10;42.80
31837;DHT22;18401;49.344;6.240;2022-07-17T10:37:46;31.50;42.20
31837;DHT22;18401;49.344;6.240;2022-07-17T10:40:25;31.60;43.80
31837;DHT22;18401;49.344;6.240;2022-07-17T10:42:57;31.90;41.30
31837;DHT22;18401;49.344;6.240;2022-07-17T10:45:30;32.30;41.10
31837;DHT22;18401;49.344;6.240;2022-07-17T10:48:04;32.60;40.00
31837;DHT22;18401;49.344;6.240;2022-07-17T10:50:37;32.90;41.80
31837;DHT22;18401;49.344;6.240;2022-07-17T10:55:52;33.30;40.60
31837;DHT22;18401;49.344;6.240;2022-07-17T10:58:25;33.80;39.60
31837;DHT22;18401;49.344;6.240;2022-07-17T11:01:08;34.20;39.10
31837;DHT22;18401;49.344;6.240;2022-07-17T11:03:45;33.90;38.80
31837;DHT22;18401;49.344;6.240;2022-07-17T11:06:21;34.30;38.20
31837;DHT22;18401;49.344;6.240;2022-07-17T11:08:51;34.90;39.40
31837;DHT22;18401;49.344;6.240;2022-07-17T11:11:18;34.70;37.40
31837;DHT22;18401;49.344;6.240;2022-07-17T11:13:44;34.50;36.80
31837;DHT22;18401;49.344;6.240;2022-07-17T11:16:10;34.60;37.40
31837;DHT22;18401;49.344;6.240;2022-07-17T11:18:36;35.40;39.70
31837;DHT22;18401;49.344;6.240;2022-07-17T11:21:03;35.30;36.20
31837;DHT22;18401;49.344;6.240;2022-07-17T11:23:31;36.10;34.80
31837;DHT22;18401;49.344;6.240;2022-07-17T11:28:38;35.60;34.50
31837;DHT22;18401;49.344;6.240;2022-07-17T11:33:48;34.20;35.50
31837;DHT22;18401;49.344;6.240;2022-07-17T11:36:39;33.50;35.30
31837;DHT22;18401;49.344;6.240;2022-07-17T11:41:43;34.20;37.50
31837;DHT22;18401;49.344;6.240;2022-07-17T11:44:13;35.10;37.00
31837;DHT22;18401;49.344;6.240;2022-07-17T11:46:43;35.40;36.20
31837;DHT22;18401;49.344;6.240;2022-07-17T11:49:09;36.10;36.50
31837;DHT22;18401;49.344;6.240;2022-07-17T11:51:44;36.30;35.20
31837;DHT22;18401;49.344;6.240;2022-07-17T11:54:15;36.50;33.40
31837;DHT22;18401;49.344;6.240;2022-07-17T11:56:42;36.10;33.70
31837;DHT22;18401;49.344;6.240;2022-07-17T11:59:09;36.20;32.20
31837;DHT22;18401;49.344;6.240;2022-07-17T12:01:43;35.70;32.40
31837;DHT22;18401;49.344;6.240;2022-07-17T12:04:11;35.90;32.70
31837;DHT22;18401;49.344;6.240;2022-07-17T12:06:37;35.70;34.00
31837;DHT22;18401;49.344;6.240;2022-07-17T12:09:04;35.70;32.70
31837;DHT22;18401;49.344;6.240;2022-07-17T12:11:30;35.90;32.10
31837;DHT22;18401;49.344;6.240;2022-07-17T12:14:04;35.90;33.20
31837;DHT22;18401;49.344;6.240;2022-07-17T12:16:31;35.40;32.40
31837;DHT22;18401;49.344;6.240;2022-07-17T12:19:02;35.40;32.60
31837;DHT22;18401;49.344;6.240;2022-07-17T12:21:31;35.60;33.00
31837;DHT22;18401;49.344;6.240;2022-07-17T12:24:02;35.80;34.20
31837;DHT22;18401;49.344;6.240;2022-07-17T12:26:29;36.30;33.40
31837;DHT22;18401;49.344;6.240;2022-07-17T12:28:54;36.60;32.40
31837;DHT22;18401;49.344;6.240;2022-07-17T12:31:20;36.80;33.30
31837;DHT22;18401;49.344;6.240;2022-07-17T12:33:46;36.00;33.60
31837;DHT22;18401;49.344;6.240;2022-07-17T12:36:12;35.70;34.60
31837;DHT22;18401;49.344;6.240;2022-07-17T12:38:38;35.70;34.00
31837;DHT22;18401;49.344;6.240;2022-07-17T12:41:03;36.30;33.30
31837;DHT22;18401;49.344;6.240;2022-07-17T12:43:30;36.40;34.20
31837;DHT22;18401;49.344;6.240;2022-07-17T12:45:56;36.10;34.10
31837;DHT22;18401;49.344;6.240;2022-07-17T12:48:22;35.00;33.10
31837;DHT22;18401;49.344;6.240;2022-07-17T12:50:47;35.50;34.60
31837;DHT22;18401;49.344;6.240;2022-07-17T12:53:13;35.00;34.20
31837;DHT22;18401;49.344;6.240;2022-07-17T12:55:39;35.10;35.60
31837;DHT22;18401;49.344;6.240;2022-07-17T12:58:05;35.10;34.30
31837;DHT22;18401;49.344;6.240;2022-07-17T13:00:31;35.30;34.80
31837;DHT22;18401;49.344;6.240;2022-07-17T13:02:57;35.40;34.80
31837;DHT22;18401;49.344;6.240;2022-07-17T13:05:23;35.70;34.40
31837;DHT22;18401;49.344;6.240;2022-07-17T13:07:49;35.50;34.40
31837;DHT22;18401;49.344;6.240;2022-07-17T13:10:15;35.60;34.20
31837;DHT22;18401;49.344;6.240;2022-07-17T13:12:41;36.20;36.10
31837;DHT22;18401;49.344;6.240;2022-07-17T13:15:07;36.10;34.90
31837;DHT22;18401;49.344;6.240;2022-07-17T13:17:34;36.40;35.60
31837;DHT22;18401;49.344;6.240;2022-07-17T13:20:00;36.40;33.80
31837;DHT22;18401;49.344;6.240;2022-07-17T13:22:26;36.50;34.50
31837;DHT22;18401;49.344;6.240;2022-07-17T13:24:52;36.50;35.00
31837;DHT22;18401;49.344;6.240;2022-07-17T13:27:18;36.40;36.80
31837;DHT22;18401;49.344;6.240;2022-07-17T13:29:43;36.40;33.90
31837;DHT22;18401;49.344;6.240;2022-07-17T13:32:09;36.50;33.90
31837;DHT22;18401;49.344;6.240;2022-07-17T13:34:35;37.00;34.70
31837;DHT22;18401;49.344;6.240;2022-07-17T13:37:00;35.60;33.10
31837;DHT22;18401;49.344;6.240;2022-07-17T13:39:26;34.60;33.80
31837;DHT22;18401;49.344;6.240;2022-07-17T13:41:52;36.20;34.00
31837;DHT22;18401;49.344;6.240;2022-07-17T13:44:17;36.40;33.40
31837;DHT22;18401;49.344;6.240;2022-07-17T13:46:43;35.20;33.20
31837;DHT22;18401;49.344;6.240;2022-07-17T13:49:08;35.20;33.70
31837;DHT22;18401;49.344;6.240;2022-07-17T13:51:34;35.80;35.40
31837;DHT22;18401;49.344;6.240;2022-07-17T13:54:00;36.40;32.70
31837;DHT22;18401;49.344;6.240;2022-07-17T13:56:26;36.00;33.10
31837;DHT22;18401;49.344;6.240;2022-07-17T13:58:52;36.00;35.00
31837;DHT22;18401;49.344;6.240;2022-07-17T14:01:18;36.80;33.30
31837;DHT22;18401;49.344;6.240;2022-07-17T14:03:44;36.60;32.30
31837;DHT22;18401;49.344;6.240;2022-07-17T14:06:10;35.90;34.10
31837;DHT22;18401;49.344;6.240;2022-07-17T14:08:36;36.40;32.90
31837;DHT22;18401;49.344;6.240;2022-07-17T14:11:03;36.60;33.90
31837;DHT22;18401;49.344;6.240;2022-07-17T14:13:29;35.50;32.70
31837;DHT22;18401;49.344;6.240;2022-07-17T14:15:55;35.60;33.80
31837;DHT22;18401;49.344;6.240;2022-07-17T14:18:21;36.70;33.10
31837;DHT22;18401;49.344;6.240;2022-07-17T14:20:46;36.40;33.40
31837;DHT22;18401;49.344;6.240;2022-07-17T14:23:12;36.20;32.80
31837;DHT22;18401;49.344;6.240;2022-07-17T14:25:38;36.30;33.30
31837;DHT22;18401;49.344;6.240;2022-07-17T14:28:04;36.00;33.40
31837;DHT22;18401;49.344;6.240;2022-07-17T14:30:30;36.30;33.60
31837;DHT22;18401;49.344;6.240;2022-07-17T14:32:57;36.20;34.70
31837;DHT22;18401;49.344;6.240;2022-07-17T14:35:23;36.00;33.00
31837;DHT22;18401;49.344;6.240;2022-07-17T14:37:50;35.60;33.70
31837;DHT22;18401;49.344;6.240;2022-07-17T14:40:17;35.40;36.00
31837;DHT22;18401;49.344;6.240;2022-07-17T14:42:43;36.10;32.50
31837;DHT22;18401;49.344;6.240;2022-07-17T14:45:09;35.50;32.70
31837;DHT22;18401;49.344;6.240;2022-07-17T14:47:35;34.80;34.60
31837;DHT22;18401;49.344;6.240;2022-07-17T14:50:01;35.40;33.00
31837;DHT22;18401;49.344;6.240;2022-07-17T14:52:27;34.70;35.20
31837;DHT22;18401;49.344;6.240;2022-07-17T14:54:52;35.80;33.30
31837;DHT22;18401;49.344;6.240;2022-07-17T14:57:18;35.20;32.50
31837;DHT22;18401;49.344;6.240;2022-07-17T14:59:44;34.90;32.70
31837;DHT22;18401;49.344;6.240;2022-07-17T15:02:09;34.80;33.50
31837;DHT22;18401;49.344;6.240;2022-07-17T15:04:35;35.40;32.80
31837;DHT22;18401;49.344;6.240;2022-07-17T15:07:05;35.40;34.00
31837;DHT22;18401;49.344;6.240;2022-07-17T15:09:30;35.90;33.10
31837;DHT22;18401;49.344;6.240;2022-07-17T15:11:56;35.30;32.80
31837;DHT22;18401;49.344;6.240;2022-07-17T15:14:22;35.60;33.30
31837;DHT22;18401;49.344;6.240;2022-07-17T15:16:47;35.90;32.80
31837;DHT22;18401;49.344;6.240;2022-07-17T15:19:13;36.20;33.00
31837;DHT22;18401;49.344;6.240;2022-07-17T15:21:39;36.10;32.60
31837;DHT22;18401;49.344;6.240;2022-07-17T15:24:05;36.00;32.70
31837;DHT22;18401;49.344;6.240;2022-07-17T15:26:31;36.10;34.80
31837;DHT22;18401;49.344;6.240;2022-07-17T15:28:58;35.40;32.40
31837;DHT22;18401;49.344;6.240;2022-07-17T15:31:23;35.10;33.90
31837;DHT22;18401;49.344;6.240;2022-07-17T15:33:49;35.20;32.40
31837;DHT22;18401;49.344;6.240;2022-07-17T15:36:15;35.10;32.20
31837;DHT22;18401;49.344;6.240;2022-07-17T15:38:55;34.60;32.20
31837;DHT22;18401;49.344;6.240;2022-07-17T15:41:23;34.20;35.70